Terminal Aerodrome Forecast
Issued by NWS

Home | Current Version | Previous Version | Text Only | Print | Product List | Glossary On
Versions: 1 2 3 4 5 6 7 8 9 10 11 12 13 14 15 16 17 18 19 20 21 22 23 24 25 26 27 28
000
FTAK31 PANC 300302 AAA
TAFAHO
TAF AMD
PAHO 300302Z 3003/3024 09011KT 6SM -SHRA BR SCT025 OVC040
      TEMPO 3003/3006 BKN025
     FM300700 VRB05KT P6SM SCT040 OVC070=

USA.gov is the U.S. government's official web portal to all federal, state and local government web resources and services.